Time,TemperatureF,DewpointF,PressureIn,WindDirection,WindDirectionDegrees,WindSpeedMPH,WindSpeedGustMPH,Humidity,HourlyPrecipIn,Conditions,Clouds,dailyrainin,SoftwareType,DateUTC
2014-09-18 00:01:00,78.5,72.9,29.98,West,281,2.0,5.0,83,0.00,,,0.00,Wunderground v.1.15,2014-09-18 04:01:00,
2014-09-18 00:06:00,78.4,73.2,29.98,West,266,2.0,5.0,84,0.00,,,0.00,Wunderground v.1.15,2014-09-18 04:06:00,
2014-09-18 00:15:00,78.0,72.8,29.97,WNW,295,2.0,3.0,84,0.00,,,0.00,Wunderground v.1.15,2014-09-18 04:15:00,
2014-09-18 00:20:00,77.9,72.7,29.97,West,276,3.0,3.0,84,0.00,,,0.00,Wunderground v.1.15,2014-09-18 04:20:00,
2014-09-18 00:25:00,77.8,72.6,29.97,West,276,2.0,3.0,84,0.00,,,0.00,Wunderground v.1.15,2014-09-18 04:25:00,
2014-09-18 00:30:00,77.7,72.5,29.97,WNW,284,1.0,1.0,84,0.00,,,0.00,Wunderground v.1.15,2014-09-18 04:30:00,
2014-09-18 00:35:00,77.6,72.4,29.97,West,270,1.0,5.0,84,0.00,,,0.00,Wunderground v.1.15,2014-09-18 04:35:00,
2014-09-18 00:41:00,77.6,72.4,29.97,West,270,0.0,5.0,84,0.00,,,0.00,Wunderground v.1.15,2014-09-18 04:41:00,
2014-09-18 00:46:00,77.4,72.2,29.96,West,270,0.0,5.0,84,0.00,,,0.00,Wunderground v.1.15,2014-09-18 04:46:00,
2014-09-18 00:51:00,77.4,72.5,29.96,West,270,0.0,5.0,85,0.00,,,0.00,Wunderground v.1.15,2014-09-18 04:51:00,
2014-09-18 00:56:00,77.2,72.3,29.96,West,270,0.0,5.0,85,0.00,,,0.00,Wunderground v.1.15,2014-09-18 04:56:00,
2014-09-18 01:01:00,77.2,72.3,29.96,West,270,0.0,5.0,85,0.00,,,0.00,Wunderground v.1.15,2014-09-18 05:01:00,
2014-09-18 01:06:00,77.1,72.2,29.96,West,270,0.0,5.0,85,0.00,,,0.00,Wunderground v.1.15,2014-09-18 05:06:00,
2014-09-18 01:16:00,77.1,72.2,29.95,SSW,195,0.0,1.0,85,0.00,,,0.00,Wunderground v.1.15,2014-09-18 05:16:00,
2014-09-18 01:21:00,77.2,72.3,29.95,WSW,238,0.0,0.0,85,0.00,,,0.00,Wunderground v.1.15,2014-09-18 05:21:00,
2014-09-18 01:26:00,77.2,72.3,29.95,West,270,0.0,0.0,85,0.00,,,0.00,Wunderground v.1.15,2014-09-18 05:26:00,
2014-09-18 01:31:00,77.2,72.3,29.95,West,270,1.0,2.0,85,0.00,,,0.00,Wunderground v.1.15,2014-09-18 05:31:00,
2014-09-18 01:36:00,77.2,72.3,29.95,West,261,1.0,5.0,85,0.00,,,0.00,Wunderground v.1.15,2014-09-18 05:36:00,
2014-09-18 01:41:00,77.1,72.2,29.95,West,262,0.0,5.0,85,0.00,,,0.00,Wunderground v.1.15,2014-09-18 05:41:00,
2014-09-18 01:46:00,77.0,72.1,29.95,West,261,0.0,5.0,85,0.00,,,0.00,Wunderground v.1.15,2014-09-18 05:46:00,
2014-09-18 01:55:00,77.1,72.2,29.94,WSW,257,0.0,5.0,85,0.00,,,0.00,Wunderground v.1.15,2014-09-18 05:55:00,
2014-09-18 02:00:00,77.1,72.2,29.94,SSE,155,0.0,5.0,85,0.00,,,0.00,Wunderground v.1.15,2014-09-18 06:00:00,
2014-09-18 02:06:00,77.0,72.1,29.94,SSW,201,0.0,5.0,85,0.00,,,0.00,Wunderground v.1.15,2014-09-18 06:06:00,
2014-09-18 02:16:00,77.2,72.3,29.93,SSW,207,1.0,1.0,85,0.00,,,0.00,Wunderground v.1.15,2014-09-18 06:16:00,
2014-09-18 02:26:00,77.1,72.2,29.93,South,169,1.0,1.0,85,0.00,,,0.00,Wunderground v.1.15,2014-09-18 06:26:00,
2014-09-18 02:31:00,77.1,71.9,29.93,SSW,211,1.0,1.0,84,0.00,,,0.00,Wunderground v.1.15,2014-09-18 06:31:00,
2014-09-18 02:36:00,77.1,71.9,29.93,SSW,211,1.0,4.0,84,0.00,,,0.00,Wunderground v.1.15,2014-09-18 06:36:00,
2014-09-18 02:41:00,77.1,71.9,29.93,SSW,207,1.0,4.0,84,0.00,,,0.00,Wunderground v.1.15,2014-09-18 06:41:00,
2014-09-18 02:46:00,77.1,71.9,29.93,SSW,207,0.0,4.0,84,0.00,,,0.00,Wunderground v.1.15,2014-09-18 06:46:00,
2014-09-18 02:51:00,77.0,71.8,29.93,SSW,204,0.0,4.0,84,0.00,,,0.00,Wunderground v.1.15,2014-09-18 06:51:00,
2014-09-18 03:01:00,77.0,71.8,29.92,SSW,204,1.0,4.0,84,0.00,,,0.00,Wunderground v.1.15,2014-09-18 07:01:00,
2014-09-18 03:06:00,76.9,71.7,29.92,SW,217,1.0,4.0,84,0.00,,,0.00,Wunderground v.1.15,2014-09-18 07:06:00,
2014-09-18 03:16:00,76.9,71.7,29.92,SSE,165,1.0,2.0,84,0.00,,,0.00,Wunderground v.1.15,2014-09-18 07:16:00,
2014-09-18 03:21:00,76.7,71.5,29.92,SSE,166,1.0,3.0,84,0.00,,,0.00,Wunderground v.1.15,2014-09-18 07:21:00,
2014-09-18 03:31:00,76.5,71.3,29.92,SW,217,1.0,1.0,84,0.00,,,0.00,Wunderground v.1.15,2014-09-18 07:31:00,
2014-09-18 03:36:00,76.4,71.2,29.92,SW,217,0.0,2.0,84,0.00,,,0.00,Wunderground v.1.15,2014-09-18 07:36:00,
2014-09-18 03:41:00,76.2,71.0,29.92,SSW,211,0.0,2.0,84,0.00,,,0.00,Wunderground v.1.15,2014-09-18 07:41:00,
2014-09-18 03:46:00,76.1,70.9,29.92,SSW,211,0.0,2.0,84,0.00,,,0.00,Wunderground v.1.15,2014-09-18 07:46:00,
2014-09-18 03:51:00,76.1,70.9,29.92,SSW,201,1.0,2.0,84,0.00,,,0.00,Wunderground v.1.15,2014-09-18 07:51:00,
2014-09-18 03:56:00,76.0,70.8,29.91,SSW,204,1.0,2.0,84,0.00,,,0.00,Wunderground v.1.15,2014-09-18 07:56:00,
2014-09-18 04:06:00,76.1,71.3,29.91,South,170,1.0,2.0,85,0.00,,,0.00,Wunderground v.1.15,2014-09-18 08:06:00,
2014-09-18 04:16:00,76.1,71.3,29.90,SSW,194,1.0,1.0,85,0.00,,,0.00,Wunderground v.1.15,2014-09-18 08:16:00,
2014-09-18 04:21:00,76.1,71.3,29.90,SSW,197,1.0,1.0,85,0.00,,,0.00,Wunderground v.1.15,2014-09-18 08:21:00,
2014-09-18 04:26:00,76.1,71.3,29.90,SSW,197,0.0,1.0,85,0.00,,,0.00,Wunderground v.1.15,2014-09-18 08:26:00,
2014-09-18 04:36:00,75.9,71.4,29.90,SSW,197,0.0,4.0,86,0.00,,,0.00,Wunderground v.1.15,2014-09-18 08:36:00,
2014-09-18 04:41:00,75.8,71.3,29.90,SSW,197,0.0,4.0,86,0.00,,,0.00,Wunderground v.1.15,2014-09-18 08:41:00,
2014-09-18 04:46:00,75.7,71.2,29.90,SSW,195,0.0,4.0,86,0.00,,,0.00,Wunderground v.1.15,2014-09-18 08:46:00,
2014-09-18 04:51:00,75.8,71.3,29.90,SSE,149,0.0,4.0,86,0.00,,,0.00,Wunderground v.1.15,2014-09-18 08:51:00,
2014-09-18 04:56:00,75.9,71.4,29.90,South,179,0.0,4.0,86,0.00,,,0.00,Wunderground v.1.15,2014-09-18 08:56:00,
2014-09-18 05:01:00,76.0,71.5,29.90,South,179,0.0,4.0,86,0.00,,,0.00,Wunderground v.1.15,2014-09-18 09:01:00,
2014-09-18 05:06:00,76.1,71.6,29.90,South,184,0.0,4.0,86,0.00,,,0.00,Wunderground v.1.15,2014-09-18 09:06:00,
2014-09-18 05:16:00,76.1,71.6,29.90,SSW,204,0.0,0.0,86,0.00,,,0.00,Wunderground v.1.15,2014-09-18 09:16:00,
2014-09-18 05:21:00,76.1,71.6,29.90,SSW,204,0.0,0.0,86,0.00,,,0.00,Wunderground v.1.15,2014-09-18 09:21:00,
2014-09-18 05:26:00,76.1,71.6,29.91,SSW,204,0.0,0.0,86,0.00,,,0.00,Wunderground v.1.15,2014-09-18 09:26:00,
2014-09-18 05:31:00,76.2,71.7,29.91,SSW,204,0.0,0.0,86,0.00,,,0.00,Wunderground v.1.15,2014-09-18 09:31:00,
2014-09-18 05:41:00,76.2,71.7,29.91,SSW,211,0.0,3.0,86,0.00,,,0.00,Wunderground v.1.15,2014-09-18 09:41:00,
2014-09-18 05:46:00,76.1,71.6,29.91,SSW,207,0.0,3.0,86,0.00,,,0.00,Wunderground v.1.15,2014-09-18 09:46:00,
2014-09-18 05:51:00,76.1,71.6,29.91,SSW,210,0.0,3.0,86,0.00,,,0.00,Wunderground v.1.15,2014-09-18 09:51:00,
2014-09-18 05:56:00,76.0,71.5,29.91,SSW,210,0.0,3.0,86,0.00,,,0.00,Wunderground v.1.15,2014-09-18 09:56:00,
2014-09-18 06:01:00,76.0,71.5,29.91,SSW,210,0.0,3.0,86,0.00,,,0.00,Wunderground v.1.15,2014-09-18 10:01:00,
2014-09-18 06:06:00,75.9,71.4,29.92,SSW,210,0.0,3.0,86,0.00,,,0.00,Wunderground v.1.15,2014-09-18 10:06:00,
2014-09-18 06:16:00,75.8,71.3,29.92,SSW,210,0.0,0.0,86,0.00,,,0.00,Wunderground v.1.15,2014-09-18 10:16:00,
2014-09-18 06:21:00,75.7,71.2,29.92,SSW,210,0.0,0.0,86,0.00,,,0.00,Wunderground v.1.15,2014-09-18 10:21:00,
2014-09-18 06:26:00,75.7,71.2,29.92,SSW,210,0.0,0.0,86,0.00,,,0.00,Wunderground v.1.15,2014-09-18 10:26:00,
2014-09-18 06:31:00,75.7,71.2,29.92,SSW,210,0.0,0.0,86,0.00,,,0.00,Wunderground v.1.15,2014-09-18 10:31:00,
2014-09-18 06:36:00,75.6,71.1,29.92,SSW,210,0.0,2.0,86,0.00,,,0.00,Wunderground v.1.15,2014-09-18 10:36:00,